Time;durP1;ratioP1;P1;durP2;ratioP2;P2;SDS_P1;SDS_P2;PMS_P1;PMS_P2;Temp;Humidity;BMP_temperature;BMP_pressure;BME280_temperature;BME280_humidity;BME280_pressure;Samples;Min_cycle;Max_cycle;Signal;HPM_P1;HPM_P2
2022/07/06 00:01:04;;;;;;;1.20;1.10;;;;;;;19.52;42.22;99381.78;5104636;28;40052;-77
2022/07/06 00:03:31;;;;;;;1.83;1.00;;;;;;;19.42;42.29;99370.09;5086146;28;41731;-79
2022/07/06 00:05:59;;;;;;;1.13;1.10;;;;;;;19.41;42.46;99373.78;5086744;28;43962;-78
2022/07/06 00:08:26;;;;;;;1.20;1.20;;;;;;;19.36;42.61;99376.06;5090645;28;42301;-78
2022/07/06 00:10:54;;;;;;;1.20;1.10;;;;;;;19.32;42.83;99380.00;5055721;28;39000;-78
2022/07/06 00:13:23;;;;;;;1.20;1.03;;;;;;;19.27;42.76;99371.50;5074176;28;41070;-77
2022/07/06 00:15:51;;;;;;;1.00;1.00;;;;;;;19.22;42.41;99376.44;5073549;28;41562;-78
2022/07/06 00:18:19;;;;;;;1.30;1.20;;;;;;;19.18;42.70;99380.38;5090194;28;41098;-78
2022/07/06 00:20:46;;;;;;;1.10;1.00;;;;;;;19.14;42.52;99381.66;5091253;28;39969;-77
2022/07/06 00:23:14;;;;;;;1.77;1.00;;;;;;;19.08;42.58;99388.41;5092039;28;41687;-77
2022/07/06 00:25:41;;;;;;;1.40;1.30;;;;;;;19.02;43.02;99384.44;5074825;28;42840;-76
2022/07/06 00:28:09;;;;;;;1.33;1.23;;;;;;;18.90;42.90;99379.31;5091165;28;42557;-78
2022/07/06 00:30:39;;;;;;;1.30;1.20;;;;;;;18.94;43.43;99378.91;5091674;28;41006;-77
2022/07/06 00:33:06;;;;;;;0.90;0.90;;;;;;;18.89;43.48;99383.00;5074593;28;41737;-78
2022/07/06 00:35:34;;;;;;;1.00;1.00;;;;;;;18.83;43.78;99380.84;5091605;28;42639;-78
2022/07/06 00:38:03;;;;;;;0.93;0.93;;;;;;;18.81;44.15;99372.91;5074181;28;40994;-76
2022/07/06 00:40:31;;;;;;;0.97;0.97;;;;;;;18.67;43.75;99355.34;5074442;28;41018;-77
2022/07/06 00:42:58;;;;;;;1.03;1.00;;;;;;;18.76;43.76;99372.50;5091323;28;40532;-77
2022/07/06 00:45:26;;;;;;;1.10;1.10;;;;;;;18.63;43.96;99350.41;5074392;28;41464;-78
2022/07/06 00:47:56;;;;;;;0.90;0.90;;;;;;;18.68;43.79;99374.97;5061353;28;42140;-80
2022/07/06 00:50:25;;;;;;;1.70;1.30;;;;;;;18.63;43.64;99372.72;5070821;28;42015;-77
2022/07/06 00:52:55;;;;;;;1.30;1.20;;;;;;;18.68;44.07;99380.34;5070349;28;40883;-77
2022/07/06 00:55:25;;;;;;;0.97;0.97;;;;;;;18.69;44.57;99382.03;5082538;28;42478;-79
2022/07/06 00:57:53;;;;;;;1.00;1.00;;;;;;;18.72;44.57;99380.94;5057552;28;41100;-80
2022/07/06 01:00:24;;;;;;;1.13;1.07;;;;;;;18.71;44.57;99380.06;5067088;28;38759;-79
2022/07/06 01:02:52;;;;;;;1.40;1.27;;;;;;;18.65;44.90;99365.38;5087524;28;41913;-77
2022/07/06 01:05:23;;;;;;;1.40;1.30;;;;;;;18.71;45.89;99369.34;5039520;28;42833;-79
2022/07/06 01:07:53;;;;;;;1.47;1.37;;;;;;;18.72;45.67;99373.72;5071367;28;42758;-78
2022/07/06 01:10:22;;;;;;;1.40;1.23;;;;;;;18.74;46.45;99371.75;5073102;28;40060;-77
2022/07/06 01:12:50;;;;;;;2.07;1.20;;;;;;;18.74;46.34;99374.44;5089583;28;41669;-77
2022/07/06 01:15:21;;;;;;;1.30;1.20;;;;;;;18.74;46.07;99374.44;5073731;28;41615;-78
2022/07/06 01:17:50;;;;;;;1.23;1.20;;;;;;;18.74;46.45;99374.44;5072803;28;44047;-79
2022/07/06 01:20:22;;;;;;;1.30;1.20;;;;;;;18.79;46.14;99366.81;5088000;28;40960;-78
2022/07/06 01:22:52;;;;;;;1.37;1.27;;;;;;;18.81;46.82;99364.84;5107486;28;43335;-77
2022/07/06 01:25:21;;;;;;;1.30;1.30;;;;;;;18.77;46.37;99347.34;5090661;28;42399;-78
2022/07/06 01:27:49;;;;;;;1.20;1.17;;;;;;;18.86;46.71;99357.25;5091592;28;43203;-77
2022/07/06 01:30:19;;;;;;;1.30;1.20;;;;;;;18.85;46.52;99363.63;5091955;28;40904;-79
2022/07/06 01:32:47;;;;;;;1.30;1.20;;;;;;;18.84;46.35;99358.38;5124703;27;41822;-79
2022/07/06 01:35:17;;;;;;;1.00;1.00;;;;;;;18.81;46.62;99359.50;5090513;28;42750;-78
2022/07/06 01:37:46;;;;;;;2.17;1.20;;;;;;;18.78;46.81;99365.16;5073530;28;41233;-77
2022/07/06 01:40:15;;;;;;;1.70;1.40;;;;;;;18.78;46.54;99359.78;5090811;28;40547;-79
2022/07/06 01:42:43;;;;;;;1.63;1.47;;;;;;;18.76;47.43;99356.38;5090714;28;42695;-78
2022/07/06 01:45:12;;;;;;;1.67;1.50;;;;;;;18.58;47.59;99336.53;5090671;28;41846;-77
2022/07/06 01:47:40;;;;;;;1.40;1.30;;;;;;;18.67;47.59;99358.03;5090466;28;42282;-77
2022/07/06 01:50:09;;;;;;;1.30;1.20;;;;;;;18.60;47.59;99351.50;5090414;28;38669;-77
2022/07/06 01:52:44;;;;;;;2.47;1.40;;;;;;;18.49;47.80;99338.16;5087081;28;41500;-78
2022/07/06 01:55:13;;;;;;;1.43;1.33;;;;;;;18.50;47.96;99360.47;5055254;28;41903;-77
2022/07/06 01:57:41;;;;;;;1.43;1.33;;;;;;;18.45;48.18;99354.63;5086963;28;42221;-78
2022/07/06 02:00:11;;;;;;;1.60;1.50;;;;;;;18.42;47.61;99358.44;5094291;28;38130;-77
2022/07/06 02:02:46;;;;;;;1.23;1.13;;;;;;;18.37;48.21;99359.84;5067895;28;43651;-78
2022/07/06 02:05:14;;;;;;;1.47;1.37;;;;;;;18.34;47.92;99362.78;5069264;28;41708;-76
2022/07/06 02:07:42;;;;;;;1.30;1.17;;;;;;;18.30;48.75;99360.34;5067541;28;40955;-78
2022/07/06 02:10:13;;;;;;;1.17;1.10;;;;;;;18.29;48.23;99364.03;5075023;28;40473;-78
2022/07/06 02:12:41;;;;;;;1.60;1.50;;;;;;;18.31;48.47;99364.72;5088796;28;42612;-77
2022/07/06 02:15:10;;;;;;;1.87;1.20;;;;;;;18.34;48.43;99366.31;5105986;28;42848;-76
2022/07/06 02:17:38;;;;;;;1.50;1.40;;;;;;;18.38;48.18;99366.91;5089216;28;42976;-77
2022/07/06 02:20:07;;;;;;;1.50;1.40;;;;;;;18.30;48.56;99343.41;5108638;27;40329;-77
2022/07/06 02:22:34;;;;;;;1.53;1.43;;;;;;;18.28;49.01;99346.25;5076436;28;42334;-78
2022/07/06 02:25:03;;;;;;;1.50;1.40;;;;;;;18.38;48.88;99366.91;5076477;28;42943;-77
2022/07/06 02:27:33;;;;;;;1.20;1.10;;;;;;;18.35;49.04;99368.00;5093440;28;42391;-77
2022/07/06 02:30:05;;;;;;;1.43;1.33;;;;;;;18.33;48.83;99369.13;5076748;28;39925;-77
2022/07/06 02:32:34;;;;;;;1.50;1.40;;;;;;;18.29;48.92;99369.41;5076213;28;40413;-77
2022/07/06 02:35:02;;;;;;;1.10;1.10;;;;;;;18.23;49.22;99367.22;5076338;28;42858;-76
2022/07/06 02:37:29;;;;;;;3.03;1.27;;;;;;;18.18;49.06;99368.59;5109884;28;42070;-78
2022/07/06 02:39:57;;;;;;;1.70;1.60;;;;;;;18.14;48.77;99370.72;5076330;28;38950;-76
2022/07/06 02:42:27;;;;;;;1.63;1.53;;;;;;;18.05;49.01;99370.66;5076339;28;41164;-77
2022/07/06 02:44:56;;;;;;;1.47;1.37;;;;;;;18.01;49.27;99370.06;5076384;28;42138;-78
2022/07/06 02:47:26;;;;;;;2.17;1.30;;;;;;;17.94;49.44;99368.84;5109853;28;41460;-77
2022/07/06 02:49:55;;;;;;;1.17;1.10;;;;;;;17.82;49.23;99364.53;5110164;28;41144;-78
2022/07/06 02:52:23;;;;;;;1.40;1.30;;;;;;;17.74;49.17;99356.28;5060359;28;40957;-79
2022/07/06 02:54:51;;;;;;;2.10;1.30;;;;;;;17.76;49.47;99378.47;5076591;28;45422;-77
2022/07/06 02:57:20;;;;;;;1.53;1.40;;;;;;;17.68;49.49;99381.75;5089864;28;43070;-77
2022/07/06 02:59:49;;;;;;;1.20;1.20;;;;;;;17.58;49.55;99373.59;5072855;28;39042;-77
2022/07/06 03:02:19;;;;;;;1.23;1.13;;;;;;;17.59;49.65;99375.31;5081101;28;41787;-77
2022/07/06 03:04:47;;;;;;;1.60;1.50;;;;;;;17.51;50.00;99376.94;5066751;28;42894;-78
2022/07/06 03:07:16;;;;;;;1.67;1.37;;;;;;;17.49;50.02;99385.09;5070670;28;42204;-76
2022/07/06 03:09:45;;;;;;;1.17;0.97;;;;;;;17.46;49.88;99388.00;5066264;28;40879;-77
2022/07/06 03:12:13;;;;;;;1.37;1.27;;;;;;;17.44;50.48;99379.25;5068982;28;42047;-77
2022/07/06 03:14:41;;;;;;;1.30;1.20;;;;;;;17.42;50.47;99386.59;5091582;28;44093;-76
2022/07/06 03:17:10;;;;;;;2.43;1.43;;;;;;;17.39;50.17;99389.50;5091966;28;40985;-78
2022/07/06 03:19:39;;;;;;;1.47;1.20;;;;;;;17.35;50.77;99382.69;5091824;28;39814;-78
2022/07/06 03:22:07;;;;;;;1.90;1.17;;;;;;;17.30;50.58;99384.06;5075274;28;42085;-78
2022/07/06 03:24:35;;;;;;;1.20;1.10;;;;;;;17.14;51.07;99369.25;5093439;28;42935;-77
2022/07/06 03:27:03;;;;;;;1.23;1.13;;;;;;;17.13;51.65;99372.03;5075646;28;40984;-77
2022/07/06 03:29:31;;;;;;;1.73;1.60;;;;;;;17.23;51.53;99394.41;5093537;28;39868;-77
2022/07/06 03:31:59;;;;;;;2.13;1.37;;;;;;;17.20;51.23;99390.16;5075518;28;40486;-77
2022/07/06 03:34:27;;;;;;;2.20;1.50;;;;;;;17.22;51.54;99385.53;5092227;28;43713;-77
2022/07/06 03:36:57;;;;;;;1.60;1.50;;;;;;;17.24;51.31;99390.75;5092428;28;43147;-78
2022/07/06 03:39:25;;;;;;;1.40;1.30;;;;;;;17.26;51.22;99391.50;5092318;28;39930;-76
2022/07/06 03:41:53;;;;;;;1.27;1.17;;;;;;;17.23;51.37;99386.38;5126565;27;42443;-77
2022/07/06 03:44:21;;;;;;;1.47;1.37;;;;;;;17.16;51.52;99372.66;5075065;28;41501;-77
2022/07/06 03:46:50;;;;;;;1.10;1.10;;;;;;;17.29;50.91;99399.28;5075201;28;41888;-77
2022/07/06 03:49:19;;;;;;;1.30;1.20;;;;;;;17.22;51.85;99382.00;5075080;28;39170;-77
2022/07/06 03:51:46;;;;;;;1.57;1.37;;;;;;;17.27;51.97;99400.38;5059905;28;40634;-78
2022/07/06 03:54:16;;;;;;;1.00;1.00;;;;;;;17.23;51.78;99394.41;5121299;27;43298;-78
2022/07/06 03:56:44;;;;;;;2.50;1.27;;;;;;;17.26;51.79;99404.88;5071969;28;41211;-77
2022/07/06 03:59:15;;;;;;;1.13;1.10;;;;;;;17.25;51.90;99400.50;5086507;28;39957;-78
2022/07/06 04:01:44;;;;;;;2.50;1.37;;;;;;;17.27;51.60;99408.41;5068288;28;41780;-77
2022/07/06 04:04:14;;;;;;;2.33;1.20;;;;;;;17.29;51.59;99406.47;5089256;28;41844;-78
2022/07/06 04:06:45;;;;;;;1.97;1.10;;;;;;;17.30;51.89;99406.34;5070032;28;42705;-77
2022/07/06 04:09:13;;;;;;;1.50;1.40;;;;;;;17.33;51.56;99403.38;5071148;28;39881;-78
2022/07/06 04:11:43;;;;;;;1.90;1.30;;;;;;;17.37;52.36;99398.63;5090376;28;42753;-78
2022/07/06 04:14:11;;;;;;;1.50;1.40;;;;;;;17.39;52.76;99400.22;5107245;28;43281;-78
2022/07/06 04:16:39;;;;;;;2.03;1.30;;;;;;;17.43;52.56;99400.81;5125337;27;42193;-78
2022/07/06 04:19:08;;;;;;;2.07;1.40;;;;;;;17.49;52.62;99401.16;5108173;28;38840;-77
2022/07/06 04:21:36;;;;;;;1.80;1.20;;;;;;;17.14;52.31;99338.94;5091467;28;41886;-79
2022/07/06 04:24:05;;;;;;;1.40;1.30;;;;;;;17.63;52.06;99418.81;5074588;28;41605;-79
2022/07/06 04:26:34;;;;;;;1.87;1.40;;;;;;;17.72;52.18;99427.91;5074599;28;42307;-79
2022/07/06 04:29:04;;;;;;;1.27;1.20;;;;;;;17.80;51.82;99420.91;5074473;28;39925;-77
2022/07/06 04:31:32;;;;;;;1.43;1.33;;;;;;;17.88;51.96;99429.19;5091164;28;41789;-78
2022/07/06 04:34:01;;;;;;;1.20;1.10;;;;;;;17.98;51.80;99433.78;5074140;28;43559;-78
2022/07/06 04:36:30;;;;;;;1.40;1.30;;;;;;;18.04;51.69;99431.44;5091409;28;42203;-78
2022/07/06 04:38:57;;;;;;;1.40;1.30;;;;;;;18.06;51.58;99420.56;5091572;28;39872;-79
2022/07/06 04:41:25;;;;;;;1.80;1.30;;;;;;;18.20;51.40;99439.88;5092027;28;41679;-78
2022/07/06 04:43:54;;;;;;;1.30;1.20;;;;;;;18.28;51.48;99440.09;5074094;28;43158;-77
2022/07/06 04:46:25;;;;;;;1.30;1.20;;;;;;;18.33;51.38;99433.47;5074394;28;42225;-77
2022/07/06 04:48:54;;;;;;;1.33;1.23;;;;;;;18.35;51.28;99434.19;5069948;28;39993;-79
2022/07/06 04:51:27;;;;;;;1.17;1.07;;;;;;;18.53;50.88;99448.72;5064091;28;43385;-78
2022/07/06 04:53:55;;;;;;;1.30;1.20;;;;;;;18.35;50.85;99400.19;5089917;28;43812;-77
2022/07/06 04:56:23;;;;;;;1.40;1.30;;;;;;;18.73;50.48;99452.41;5073024;28;41042;-78
2022/07/06 04:58:51;;;;;;;1.30;1.20;;;;;;;18.83;50.71;99454.16;5090377;28;39582;-76
2022/07/06 05:01:21;;;;;;;1.57;1.40;;;;;;;18.91;50.47;99451.66;5072913;28;40964;-77
2022/07/06 05:03:52;;;;;;;1.50;1.40;;;;;;;18.99;50.46;99456.34;5090507;28;42932;-78
2022/07/06 05:06:23;;;;;;;4.73;1.23;;;;;;;19.07;50.36;99461.88;5074357;28;42326;-76
2022/07/06 05:08:51;;;;;;;1.80;1.53;;;;;;;19.17;50.04;99461.91;5091008;28;40689;-77
2022/07/06 05:11:19;;;;;;;1.43;1.33;;;;;;;19.25;50.49;99465.66;5074169;28;40924;-76
2022/07/06 05:13:49;;;;;;;2.60;1.30;;;;;;;19.33;49.74;99467.63;5124805;27;43591;-78
2022/07/06 05:16:17;;;;;;;1.60;1.30;;;;;;;19.43;49.72;99476.56;5107793;28;40816;-77
2022/07/06 05:18:46;;;;;;;1.70;1.40;;;;;;;19.52;49.41;99473.13;5073702;28;38721;-78
2022/07/06 05:21:15;;;;;;;1.30;1.20;;;;;;;19.63;49.64;99475.69;5073765;28;42149;-78
2022/07/06 05:23:43;;;;;;;1.93;1.60;;;;;;;19.73;49.19;99476.56;5090790;28;42786;-79
2022/07/06 05:26:10;;;;;;;1.40;1.30;;;;;;;19.86;49.05;99488.88;5073941;28;41341;-79
2022/07/06 05:28:39;;;;;;;1.63;1.30;;;;;;;19.96;48.67;99487.91;5073993;28;38869;-78
2022/07/06 05:31:10;;;;;;;1.40;1.33;;;;;;;20.10;48.91;99489.31;5107571;28;40729;-77
2022/07/06 05:33:38;;;;;;;1.20;1.20;;;;;;;20.22;48.47;99492.72;5107576;28;41715;-79
2022/07/06 05:36:07;;;;;;;1.20;1.20;;;;;;;20.24;48.02;99483.53;5107466;28;43609;-78
2022/07/06 05:38:36;;;;;;;1.97;1.50;;;;;;;20.48;47.74;99504.66;5091785;28;39668;-79
2022/07/06 05:41:04;;;;;;;1.47;1.20;;;;;;;20.69;47.66;99501.78;5073841;28;41968;-79
2022/07/06 05:43:36;;;;;;;1.63;1.53;;;;;;;20.72;47.11;99486.19;5073447;28;43889;-77
2022/07/06 05:46:04;;;;;;;1.60;1.27;;;;;;;20.91;46.98;99504.13;5073687;28;42993;-78
2022/07/06 05:51:19;;;;;;;1.30;1.20;;;;;;;21.00;47.15;99508.69;5087507;28;41806;-78
2022/07/06 05:53:49;;;;;;;1.30;1.20;;;;;;;21.06;46.92;99510.78;5090941;28;42716;-78
2022/07/06 05:56:17;;;;;;;1.47;1.40;;;;;;;21.09;46.40;99517.72;5093998;28;43029;-77
2022/07/06 05:58:45;;;;;;;1.30;1.20;;;;;;;21.05;46.29;99498.28;5093690;28;40079;-77
2022/07/06 06:01:12;;;;;;;2.00;1.50;;;;;;;21.15;46.40;99515.25;5077122;28;41745;-77
2022/07/06 06:03:42;;;;;;;3.07;1.53;;;;;;;21.16;46.21;99516.97;5076586;28;43082;-77
2022/07/06 06:06:11;;;;;;;1.33;1.20;;;;;;;21.27;46.29;99517.81;5127819;27;42183;-78
2022/07/06 06:08:39;;;;;;;1.30;1.20;;;;;;;21.36;46.13;99514.25;5076818;28;38763;-79
2022/07/06 06:11:09;;;;;;;1.63;1.50;;;;;;;21.61;45.80;99527.03;5075909;28;41601;-78
2022/07/06 06:13:36;;;;;;;1.23;1.13;;;;;;;21.80;45.58;99526.06;5076663;28;42849;-79
2022/07/06 06:16:05;;;;;;;1.47;1.20;;;;;;;21.99;45.58;99527.84;5076617;28;42155;-77
2022/07/06 06:18:32;;;;;;;2.63;1.23;;;;;;;22.19;45.10;99530.25;5076580;28;39035;-78
2022/07/06 06:21:01;;;;;;;1.43;1.33;;;;;;;22.22;44.83;99531.81;5093349;28;41975;-78
2022/07/06 06:23:28;;;;;;;2.10;1.20;;;;;;;22.16;44.65;99530.56;5076323;28;42032;-77
2022/07/06 06:25:56;;;;;;;1.93;1.17;;;;;;;22.04;44.58;99530.91;5076529;28;42024;-77
2022/07/06 06:28:25;;;;;;;1.33;1.10;;;;;;;21.90;44.65;99531.41;5093447;28;40120;-78
2022/07/06 06:30:53;;;;;;;1.27;1.10;;;;;;;21.81;44.93;99525.94;5076451;28;41778;-78
2022/07/06 06:33:21;;;;;;;1.27;1.17;;;;;;;21.79;45.04;99522.53;5076261;28;42093;-77
2022/07/06 06:35:50;;;;;;;1.57;1.20;;;;;;;21.88;44.67;99531.59;5076326;28;41175;-78
2022/07/06 06:38:19;;;;;;;1.20;1.10;;;;;;;21.94;44.57;99535.50;5093313;28;39809;-78
2022/07/06 06:40:47;;;;;;;1.43;1.17;;;;;;;22.14;44.32;99539.78;5076496;28;40875;-79
2022/07/06 06:43:15;;;;;;;2.27;1.20;;;;;;;22.20;44.51;99529.25;5094292;28;43816;-77
2022/07/06 06:45:53;;;;;;;1.40;1.30;;;;;;;22.43;44.13;99524.25;5090331;28;42296;-78
2022/07/06 06:48:21;;;;;;;1.93;1.10;;;;;;;22.74;43.45;99537.34;5092879;28;39145;-78
2022/07/06 06:50:49;;;;;;;1.47;1.20;;;;;;;22.98;42.98;99534.00;5093072;28;41543;-78
2022/07/06 06:53:17;;;;;;;1.23;1.03;;;;;;;23.00;43.00;99505.78;5092862;28;41726;-77
2022/07/06 06:55:45;;;;;;;1.87;1.30;;;;;;;23.34;43.06;99532.03;5075329;28;41071;-79
2022/07/06 06:58:12;;;;;;;2.07;1.47;;;;;;;23.54;42.36;99538.91;5075711;28;39949;-78
2022/07/06 07:00:40;;;;;;;1.17;1.07;;;;;;;23.61;42.34;99539.97;5094055;28;41505;-78
2022/07/06 07:03:10;;;;;;;1.30;1.13;;;;;;;23.73;42.06;99546.78;5092996;28;43256;-77
2022/07/06 07:05:37;;;;;;;1.40;1.00;;;;;;;23.72;41.30;99539.69;5093669;28;42246;-79
2022/07/06 07:08:05;;;;;;;1.77;1.00;;;;;;;23.91;41.14;99552.94;5092852;28;40052;-77
2022/07/06 07:10:34;;;;;;;1.23;1.10;;;;;;;24.03;41.25;99541.78;5093768;28;41744;-79
2022/07/06 07:13:01;;;;;;;1.33;0.83;;;;;;;24.34;40.43;99561.88;5092773;28;43194;-77
2022/07/06 07:15:30;;;;;;;2.00;1.00;;;;;;;24.69;39.92;99567.00;5075714;28;42267;-79
2022/07/06 07:17:57;;;;;;;4.07;1.13;;;;;;;24.96;39.13;99573.13;5092754;28;38920;-78
2022/07/06 07:20:29;;;;;;;0.97;0.97;;;;;;;25.03;39.48;99574.13;5092467;28;40869;-78
2022/07/06 07:22:57;;;;;;;1.63;1.00;;;;;;;25.18;39.27;99560.72;5092660;28;41695;-77
2022/07/06 07:25:25;;;;;;;1.73;1.10;;;;;;;25.17;39.09;99540.91;5093846;28;41983;-78
2022/07/06 07:27:54;;;;;;;1.63;1.30;;;;;;;25.32;39.19;99552.75;5075400;28;40012;-78
2022/07/06 07:30:21;;;;;;;2.50;1.10;;;;;;;25.63;37.98;99570.97;5092333;28;41681;-77
2022/07/06 07:32:49;;;;;;;1.73;1.17;;;;;;;25.83;38.02;99572.28;5092110;28;42862;-78
2022/07/06 07:35:17;;;;;;;1.40;1.00;;;;;;;26.29;36.86;99577.84;5093473;28;42011;-78
2022/07/06 07:37:46;;;;;;;1.93;1.23;;;;;;;27.27;35.70;99583.38;5093290;28;40003;-79
2022/07/06 07:40:14;;;;;;;2.03;0.90;;;;;;;28.38;33.68;99596.91;5092319;28;41058;-78
2022/07/06 07:42:43;;;;;;;1.17;1.07;;;;;;;29.28;32.89;99592.56;5075191;28;42907;-78
2022/07/06 07:45:11;;;;;;;1.40;1.30;;;;;;;30.15;31.20;99610.38;5092376;28;42247;-79
2022/07/06 07:47:38;;;;;;;2.87;1.30;;;;;;;30.83;29.42;99624.91;5126041;27;39983;-79
2022/07/06 07:50:08;;;;;;;1.17;0.97;;;;;;;31.57;29.12;99625.59;5091992;28;41710;-79
2022/07/06 07:52:36;;;;;;;1.83;1.17;;;;;;;31.97;28.55;99606.34;5092954;28;44203;-78
2022/07/06 07:55:06;;;;;;;2.43;1.33;;;;;;;31.85;28.03;99602.59;5092301;28;42015;-78
2022/07/06 07:57:34;;;;;;;1.17;1.07;;;;;;;31.63;28.20;99619.28;5074782;28;38958;-78
2022/07/06 08:00:02;;;;;;;1.93;1.37;;;;;;;31.58;28.64;99615.47;5093237;28;41766;-79
2022/07/06 08:02:39;;;;;;;1.70;1.03;;;;;;;31.95;27.79;99605.72;5090108;28;43487;-79
2022/07/06 08:05:08;;;;;;;1.10;1.00;;;;;;;33.28;26.16;99635.00;5074817;28;41175;-79
2022/07/06 08:07:36;;;;;;;1.13;1.10;;;;;;;34.54;24.70;99640.06;5092674;28;40005;-78
2022/07/06 08:10:05;;;;;;;1.33;1.10;;;;;;;35.74;23.55;99638.00;5091629;28;40613;-80
2022/07/06 08:12:34;;;;;;;2.78;1.20;;;;;;;36.94;22.32;99645.53;5092531;28;42965;-80
2022/07/06 08:15:01;;;;;;;2.15;1.15;;;;;;;38.07;21.13;99652.69;5074811;28;41301;-80
2022/07/06 08:17:29;;;;;;;1.17;1.00;;;;;;;39.04;20.55;99646.41;5124927;27;39896;-80
2022/07/06 08:19:57;;;;;;;2.78;1.42;;;;;;;39.90;19.76;99652.69;5091674;28;41928;-79
2022/07/06 08:22:26;;;;;;;1.13;1.08;;;;;;;40.54;18.98;99649.69;5091250;28;41822;-79
2022/07/06 08:24:54;;;;;;;2.33;1.10;;;;;;;41.18;18.54;99663.22;5091711;28;43140;-79
2022/07/06 08:27:23;;;;;;;1.55;1.02;;;;;;;41.70;17.78;99668.53;5125994;27;39739;-79
2022/07/06 08:29:51;;;;;;;2.38;1.30;;;;;;;41.79;17.63;99661.25;5092735;28;42253;-79
2022/07/06 08:32:19;;;;;;;1.20;1.15;;;;;;;41.39;17.97;99652.94;5091402;28;42836;-81
2022/07/06 08:34:47;;;;;;;2.63;1.52;;;;;;;40.88;18.29;99638.97;5091466;28;41127;-80
2022/07/06 08:37:15;;;;;;;1.35;1.10;;;;;;;40.26;18.63;99650.09;5091615;28;40156;-79
2022/07/06 08:39:43;;;;;;;0.98;0.98;;;;;;;38.41;20.37;99639.59;5092470;28;42720;-79
2022/07/06 08:42:11;;;;;;;1.52;1.13;;;;;;;37.48;20.78;99638.47;5091106;28;42828;-79
2022/07/06 08:44:40;;;;;;;4.82;1.27;;;;;;;37.77;21.00;99636.47;5090951;28;41230;-79
2022/07/06 08:47:08;;;;;;;1.13;1.05;;;;;;;38.12;20.74;99632.56;5091390;28;39600;-79
2022/07/06 08:49:40;;;;;;;1.23;1.13;;;;;;;38.63;20.34;99637.66;5091065;28;42749;-80
2022/07/06 08:52:09;;;;;;;1.70;1.40;;;;;;;38.54;20.25;99636.44;5091109;28;43077;-80
2022/07/06 08:54:38;;;;;;;1.70;1.60;;;;;;;38.96;19.08;99646.84;5091032;28;41211;-80
2022/07/06 08:57:07;;;;;;;1.20;1.10;;;;;;;39.06;18.79;99650.59;5092270;28;39884;-79
2022/07/06 08:59:34;;;;;;;1.50;1.37;;;;;;;38.66;19.94;99645.44;5092213;28;41845;-79
2022/07/06 09:02:04;;;;;;;1.67;1.15;;;;;;;37.97;20.45;99642.28;5090907;28;43239;-81
2022/07/06 09:04:34;;;;;;;2.03;1.40;;;;;;;38.31;19.95;99647.75;5091938;28;44595;-78
2022/07/06 09:07:02;;;;;;;3.37;1.70;;;;;;;37.94;19.79;99640.06;5090948;28;38869;-79
2022/07/06 09:09:32;;;;;;;2.27;1.40;;;;;;;38.29;20.53;99649.94;5090763;28;42631;-80
2022/07/06 09:12:00;;;;;;;1.73;1.57;;;;;;;37.33;20.61;99636.31;5073451;28;41730;-79
2022/07/06 09:14:29;;;;;;;2.40;1.40;;;;;;;37.95;20.07;99647.25;5073809;28;41452;-79
2022/07/06 09:17:05;;;;;;;1.33;1.23;;;;;;;38.60;19.42;99649.25;5092068;28;39794;-78
2022/07/06 09:19:34;;;;;;;1.70;1.60;;;;;;;37.92;20.02;99649.69;5091868;28;41753;-79
2022/07/06 09:22:04;;;;;;;1.33;1.23;;;;;;;36.50;21.50;99647.97;5073733;28;42116;-79
2022/07/06 09:24:32;;;;;;;1.30;1.20;;;;;;;35.18;22.76;99638.50;5091963;28;43171;-79
2022/07/06 09:27:01;;;;;;;1.40;1.30;;;;;;;34.07;24.07;99622.44;5092222;28;40139;-79
2022/07/06 09:29:30;;;;;;;1.33;1.03;;;;;;;33.63;24.70;99629.81;5077012;28;40924;-81
2022/07/06 09:31:59;;;;;;;1.50;1.30;;;;;;;34.11;23.86;99632.75;5094202;28;41692;-79
2022/07/06 09:34:41;;;;;;;1.77;1.33;;;;;;;35.07;23.52;99629.16;5077177;28;41450;-80
2022/07/06 09:37:09;;;;;;;1.20;1.07;;;;;;;35.50;22.52;99637.13;5077658;28;39174;-78
2022/07/06 09:39:37;;;;;;;1.37;1.20;;;;;;;36.00;22.54;99631.16;5094315;28;41932;-79
2022/07/06 09:42:07;;;;;;;1.40;1.30;;;;;;;37.33;21.48;99646.53;5095521;28;42601;-79
2022/07/06 09:44:37;;;;;;;1.53;1.27;;;;;;;36.64;21.57;99643.84;5094342;28;42652;-78
2022/07/06 09:47:07;;;;;;;1.50;1.30;;;;;;;36.40;21.76;99635.88;5095414;28;40945;-79
2022/07/06 09:49:36;;;;;;;1.43;1.33;;;;;;;38.05;19.84;99663.16;5076819;28;41064;-80
2022/07/06 09:52:06;;;;;;;1.30;1.20;;;;;;;39.72;18.78;99658.63;5093846;28;43753;-78
2022/07/06 09:54:36;;;;;;;1.35;1.10;;;;;;;40.28;18.24;99661.78;5094894;28;44966;-79
2022/07/06 09:57:05;;;;;;;1.60;1.50;;;;;;;39.96;18.58;99668.25;5094116;28;40875;-79
2022/07/06 09:59:35;;;;;;;1.58;1.38;;;;;;;40.53;18.26;99670.25;5093656;28;42060;-79
2022/07/06 10:02:04;;;;;;;2.30;1.20;;;;;;;41.30;17.07;99665.75;5093738;28;43494;-80
2022/07/06 10:04:33;;;;;;;0.90;0.80;;;;;;;41.26;17.41;99654.34;5093657;28;43009;-80
2022/07/06 10:07:02;;;;;;;1.95;1.10;;;;;;;39.71;18.48;99629.22;5095116;28;39905;-79
2022/07/06 10:09:31;;;;;;;1.00;0.97;;;;;;;38.16;19.19;99653.09;5093365;28;40587;-79
2022/07/06 10:12:03;;;;;;;2.07;1.00;;;;;;;37.04;20.68;99637.44;5092148;28;42876;-78
2022/07/06 10:14:33;;;;;;;0.93;0.80;;;;;;;36.11;21.30;99638.56;5093142;28;41207;-78
2022/07/06 10:17:03;;;;;;;1.30;1.20;;;;;;;35.60;21.30;99625.53;5093734;28;40434;-79
2022/07/06 10:19:32;;;;;;;1.10;0.90;;;;;;;35.55;22.21;99625.41;5093142;28;40828;-79
2022/07/06 10:22:03;;;;;;;1.00;1.00;;;;;;;35.35;22.18;99622.16;5076511;28;42842;-78
2022/07/06 10:24:34;;;;;;;1.03;1.00;;;;;;;34.61;22.54;99628.97;5094441;28;42066;-79
2022/07/06 10:27:03;;;;;;;0.87;0.87;;;;;;;34.22;22.32;99618.22;5076527;28;39972;-77
2022/07/06 10:29:32;;;;;;;1.87;1.20;;;;;;;34.51;22.09;99622.09;5093025;28;42097;-78
2022/07/06 10:32:02;;;;;;;0.70;0.70;;;;;;;34.49;22.68;99628.94;5093158;28;42722;-79
2022/07/06 10:34:29;;;;;;;1.10;1.00;;;;;;;34.51;22.67;99633.09;5092891;28;42939;-78
2022/07/06 10:36:57;;;;;;;1.50;1.40;;;;;;;34.70;23.04;99619.31;5093394;28;39291;-77
2022/07/06 10:42:45;;;;;;;1.40;0.90;;;;;;;34.72;22.71;99633.69;5076134;28;42858;-78
2022/07/06 10:45:14;;;;;;;3.40;1.40;;;;;;;34.86;22.09;99607.69;5073515;28;41411;-79
2022/07/06 10:47:43;;;;;;;1.20;1.10;;;;;;;35.10;21.87;99625.09;5075786;28;40692;-78
2022/07/06 10:50:12;;;;;;;1.00;1.00;;;;;;;35.10;21.67;99620.44;5076011;28;43358;-79
2022/07/06 10:52:50;;;;;;;1.17;1.07;;;;;;;35.25;21.68;99626.31;5075637;28;41606;-78
2022/07/06 10:55:32;;;;;;;1.47;1.30;;;;;;;35.44;21.69;99623.50;5093256;28;41332;-76
2022/07/06 10:58:00;;;;;;;1.30;1.17;;;;;;;34.99;21.16;99623.16;5090607;28;39978;-78
2022/07/06 11:00:43;;;;;;;2.00;1.17;;;;;;;34.35;21.76;99628.25;5076018;28;40731;-78
2022/07/06 11:03:33;;;;;;;1.27;1.00;;;;;;;34.17;21.96;99619.97;5075378;28;43502;-79
2022/07/06 11:06:02;;;;;;;1.27;1.17;;;;;;;34.01;22.94;99612.34;5075809;28;41080;-79
2022/07/06 11:08:50;;;;;;;1.27;1.10;;;;;;;33.93;22.91;99607.16;5093789;28;39830;-79
2022/07/06 11:11:21;;;;;;;1.20;0.90;;;;;;;33.95;22.92;99605.03;5091511;28;42550;-80
2022/07/06 11:13:50;;;;;;;1.77;1.13;;;;;;;34.11;22.86;99598.91;5091315;28;42793;-78
2022/07/06 11:16:19;;;;;;;1.27;1.17;;;;;;;33.78;22.86;99616.59;5075573;28;41342;-77
2022/07/06 11:18:49;;;;;;;2.53;1.23;;;;;;;33.24;23.08;99597.25;5092486;28;40269;-79
2022/07/06 11:21:21;;;;;;;1.00;1.00;;;;;;;32.93;22.87;99612.66;5092458;28;40689;-80
2022/07/06 11:23:51;;;;;;;1.00;1.00;;;;;;;32.91;23.92;99609.28;5091214;28;42565;-78
2022/07/06 11:26:23;;;;;;;1.63;1.40;;;;;;;32.80;23.42;99588.06;5092453;28;41045;-79
2022/07/06 11:28:52;;;;;;;1.20;1.00;;;;;;;33.15;23.74;99611.22;5075621;28;38850;-79
2022/07/06 11:31:20;;;;;;;1.13;1.10;;;;;;;33.38;22.32;99620.81;5093594;28;41502;-79
2022/07/06 11:33:49;;;;;;;1.73;1.17;;;;;;;33.57;21.82;99619.75;5075030;28;44320;-80
2022/07/06 11:36:18;;;;;;;1.13;1.10;;;;;;;33.76;22.94;99606.91;5075468;28;42109;-79
2022/07/06 11:38:47;;;;;;;1.63;1.07;;;;;;;33.73;22.48;99618.34;5108837;28;38828;-78
2022/07/06 11:41:16;;;;;;;1.40;1.30;;;;;;;33.13;22.81;99605.13;5093384;28;42465;-79
2022/07/06 11:43:47;;;;;;;1.33;1.23;;;;;;;33.42;22.95;99600.88;5092023;28;41728;-78
2022/07/06 11:46:26;;;;;;;1.10;1.10;;;;;;;33.81;24.34;99599.66;5092480;28;41446;-78
2022/07/06 11:48:56;;;;;;;1.37;1.10;;;;;;;34.44;22.42;99612.25;5091759;28;40315;-79